Flight Track Log - Related Links

Times and Time Zones

All times are in EDT time to prevent confusion due to time zone crossing. See the N43100 flight status page for this flight to view local times or setup timezone preferences in your user account.

Time Position Orientation Groundspeed Altitude Reporting Facility
EDT Latitude Longitude Course Direction KTS MPH feet Rate Location/Type
Wed 05:28:45 PM 44.9667 -93.0667 300° West 107 123 2,100  Level Minneapolis TRACON
Wed 05:29:45 PM 44.9833 -93.0333 55° Northeast 104 120 3,600 1,367 Climbing Minneapolis TRACON
Wed 05:30:04 PM 44.9908 -93.0283 25° Northeast 100 115 3,900 370 Climbing Minneapolis Center
Wed 05:31:06 PM 45.0258 -93.0222 North 125 144 4,100 97 Climbing Minneapolis Center
Wed 05:32:08 PM 45.0686 -93.0197 North 152 175 4,100 -48 Level Minneapolis Center
Wed 05:33:10 PM 45.0975 -93.0658 312° West 155 178 4,000  Descending Minneapolis Center
Wed 05:34:00 PM 45.0660 -93.3780 300° West  Level Estimated
Wed 05:34:12 PM 45.1261 -93.1056 316° Northwest 147 169 4,100  Level Minneapolis Center
Wed 05:35:14 PM 45.1517 -93.1614 303° West 151 174 4,000  Descending Minneapolis Center
Wed 05:36:16 PM 45.1583 -93.2217 279° West 156 180 4,100 387 Climbing Minneapolis Center
Wed 05:37:18 PM 45.1656 -93.2775 280° West 146 168 4,800 726 Climbing Minneapolis Center
Wed 05:38:20 PM 45.1719 -93.3242 281° West 125 144 5,600 581 Climbing Minneapolis Center
Wed 05:39:22 PM 45.1831 -93.3700 289° West 125 144 6,000 194 Climbing Minneapolis Center
Wed 05:40:24 PM 45.2075 -93.4281 301° West 143 165 6,000  Level Minneapolis Center
Wed 05:41:26 PM 45.2250 -93.4806 295° West 149 171 6,000  Level Minneapolis Center
Wed 05:42:28 PM 45.2439 -93.5333 297° West 150 173 6,000 387 Level Minneapolis Center
Wed 05:43:30 PM 45.2603 -93.5789 297° West 132 152 6,800 677 Climbing Minneapolis Center
Wed 05:44:32 PM 45.2747 -93.6211 296° West 122 140 7,400 634 Climbing Minneapolis Center
Wed 05:45:33 PM 45.2900 -93.6642 297° West 122 140 8,100 293 Climbing Minneapolis Center
Wed 05:46:35 PM 45.3122 -93.7283 296° West 150 173 8,000 -48 Descending Minneapolis Center
Wed 05:47:37 PM 45.3297 -93.7828 295° West 153 176 8,000  Level Minneapolis Center
Wed 05:48:39 PM 45.3489 -93.8347 298° West 150 173 8,000  Level Minneapolis Center
Wed 05:49:41 PM 45.3675 -93.8875 297° West 149 171 8,000  Level Minneapolis Center
Wed 05:50:43 PM 45.3844 -93.9403 295° West 148 170 8,000  Level Minneapolis Center
Wed 05:51:45 PM 45.4069 -94.0033 297° West 150 173 8,000  Level Minneapolis Center
Wed 05:52:47 PM 45.4250 -94.0564 296° West 149 171 8,000  Level Minneapolis Center
Wed 05:53:49 PM 45.4422 -94.1114 294° West 153 176 8,000  Level Minneapolis Center
Wed 05:54:51 PM 45.4606 -94.1653 296° West 151 174 8,000  Level Minneapolis Center
Wed 05:55:52 PM 45.4794 -94.2222 295° West 159 183 8,000  Level Minneapolis Center
Wed 05:56:54 PM 45.4972 -94.2769 295° West 155 178 8,000 44 Level Minneapolis Center
Wed 05:58:08 PM 45.5203 -94.3400 298° West 149 171 8,100 44 Climbing Minneapolis Center
Wed 05:59:10 PM 45.5414 -94.4064 294° West 153 176 8,100  Level Minneapolis Center
Wed 06:00:12 PM 45.5558 -94.4625 290° West 152 175 8,100 -88 Level Minneapolis Center
Wed 06:01:26 PM 45.5692 -94.5206 288° West 153 176 7,900 -441 Descending Minneapolis Center
Wed 06:02:28 PM 45.5878 -94.5964 289° West 166 191 7,100 -532 Descending Minneapolis Center
Wed 06:03:30 PM 45.6075 -94.6553 296° West 166 191 6,800 -439 Descending Minneapolis Center
Wed 06:04:31 PM 45.6303 -94.7239 295° West 161 185 6,200 -634 Descending Minneapolis Center
Wed 06:05:33 PM 45.6453 -94.7842 290° West 160 184 5,500 -629 Descending Minneapolis Center
Wed 06:06:35 PM 45.6631 -94.8458 292° West 165 190 4,900 -581 Descending Minneapolis Center

Login

Don't have an account? Register now (free) for customized features, flight alerts, and more!